• Join FlightAware (Why Join?)
  • Login
  • US Flag 
02:37PM EST


 

Airport Tracker/Info


-or-


 

Live Flight TrackerFlight Track Log ✈ UCA4846 ✈ 26-Jul-2014 ✈ KEWR - KBWI

Flight Track Log - Related Links

Times and Time Zones

All times are in EDT time to prevent confusion due to time zone crossing. See the UCA4846 flight status page for this flight to view local times or setup timezone preferences in your user account.

Time Position Orientation Groundspeed Altitude Reporting Facility
EDT Latitude Longitude Course Direction KTS MPH feet Rate Location/Type
07:38PM 39.8856 -75.7184 232° Southwest  Level FlightAware Approximate
07:39PM 39.8487 -75.7770 229° Southwest  Level FlightAware Approximate
07:40PM 39.8164 -75.8396 241° Southwest  Level FlightAware Approximate
07:41PM 39.7880 -75.9058 241° Southwest  Level FlightAware Approximate
07:42PM 39.7568 -75.9698 237° Southwest  Level FlightAware Approximate
07:43PM 39.7242 -76.0183 237° Southwest  Level FlightAware Approximate
07:44PM 39.6924 -76.0819 237° Southwest  Level FlightAware Approximate
07:45PM 39.6645 -76.1450 229° Southwest  Level FlightAware Approximate
07:46PM 39.6303 -76.2061 237° Southwest  Level FlightAware Approximate
07:47PM 39.5959 -76.2750 237° Southwest  Level FlightAware Approximate
07:48PM 39.5500 -76.3291 210° Southwest  Level FlightAware Approximate
07:49PM 39.4953 -76.3702 210° Southwest  Level FlightAware Approximate
07:50PM 39.4405 -76.4113 210° Southwest  Level FlightAware Approximate
07:51PM 39.3899 -76.4601 218° Southwest  Level FlightAware Approximate
07:52PM 39.3365 -76.5034 207° Southwest  Level FlightAware Approximate
07:53PM 39.2843 -76.5490 218° Southwest  Level FlightAware Approximate
07:54PM 39.2288 -76.5879 218° Southwest  Level FlightAware Approximate
07:55PM 39.1788 -76.6379 218° Southwest  Level FlightAware Approximate
07:56PM 39.1667 -76.6667 270° West  Level FlightAware Approximate
07:57PM 39.1754 -76.6683 270° West  Level Estimated
07:58PM 39.1754 -76.6683 270° West  Level Estimated
07:59PM 39.1754 -76.6683 270° West  Level Estimated
08:00PM 39.1754 -76.6683 270° West  Level Estimated
08:01PM 39.1754 -76.6683 270° West  Level Estimated
08:02PM 39.1754 -76.6683 270° West  Level Estimated
08:03PM 39.1754 -76.6683 270° West  Level Estimated
08:04PM 39.1754 -76.6683 270° West  Level Estimated
08:05PM 39.1754 -76.6683 270° West  Level Estimated
08:06PM 39.1754 -76.6683 270° West  Level Estimated
08:07PM 39.1754 -76.6683 270° West  Level Estimated
08:08PM 39.1754 -76.6683 270° West  Level Estimated
08:09PM 39.1754 -76.6683 270° West  Level Estimated
08:10PM 39.1754 -76.6683 270° West  Level Estimated
08:11PM 39.1754 -76.6683 270° West  Level Estimated